ROST FLYPLASS current weather conditions

sailwx.info

Wind from 260 at 4 knots

Air temperature 8.0° C
Visibility: greater than 5.4 NM
Dewpoint 5.0° C

Last reported at 2015-Jun-02 18:20 UTC.
Time now 2015-Jun-03 05:31 UTC

Location: N 67°31' E 012°06'.
View on Google Maps.

See reports from other nearby stations

  
Tides and Currents Weather Stations Pressure Air Temp Water Temp Dewpoint Dewpoint Depression Visibility Wind Speed Wind Dir Waves Ship Positions
date/time (UTC)wind fromknots sea level pressurealtimeterstation pressurevisibilityair tempwater tempwave heightnotes
2015-Jun-02 18:20 260 4 5.4 8.0
2015-Jun-02 17:50 200 6 5.4 9.0
2015-Jun-02 17:20 200 8 5.4 9.0
2015-Jun-02 16:50 200 7 5.4 9.0
2015-Jun-02 15:50 200 12 5.4 9.0
2015-Jun-02 15:20 210 12 5.4 9.0
2015-Jun-02 14:50 210 13 5.4 9.0
2015-Jun-02 14:20 220 13 5.4 9.0
2015-Jun-02 13:20 220 15 5.4 9.0
2015-Jun-02 12:50 220 16 5.4 9.0
2015-Jun-02 11:20 230 17 5.4 8.0 Showers in the vicinity.
2015-Jun-02 10:50 230 18 5.4 8.0 Showers in the vicinity.
2015-Jun-02 09:20 230 18 5.4 8.0 Showers in the vicinity.
2015-Jun-02 08:20 230 17 5.4 7.0 Light rain showers.
2015-Jun-02 07:20 230 20 5.4 7.0 Rain showers.
2015-Jun-02 06:50 240 17 5.4 7.0 Rain showers.
2015-Jun-02 06:20 240 20 5.4 7.0 Rain showers.
2015-Jun-02 05:50 240 22 5.4 7.0 Rain showers.
2015-Jun-02 05:20 240 24 5.4 7.0 Rain showers.
2015-Jun-02 04:50 250 23 5.4 7.0 Rain showers.
2015-Jun-01 17:50 090 10 5.4 8.0
2015-Jun-01 17:20 090 13 5.4 8.0
2015-Jun-01 16:50 100 16 9.0
2015-Jun-01 16:20 060 14 8.0
2015-Jun-01 15:50 060 14 8.0
2015-Jun-01 06:50 150 13 5.4 9.0
2015-Jun-01 05:50 110 11 5.4 9.0
2015-Jun-01 05:20 120 12 9.0